Time;durP1;ratioP1;P1;durP2;ratioP2;P2;SDS_P1;SDS_P2;PMS_P1;PMS_P2;Temp;Humidity;BMP_temperature;BMP_pressure;BME280_temperature;BME280_humidity;BME280_pressure;Samples;Min_cycle;Max_cycle;Signal;HPM_P1;HPM_P2
2021/12/24 00:00:29;;;;;;;4.43;4.10;;;9.50;99.90;;;;;;5095539;28;20463;-58
2021/12/24 00:02:57;;;;;;;6.77;4.80;;;9.60;99.90;;;;;;5095301;28;20446;-58
2021/12/24 00:05:25;;;;;;;4.37;3.47;;;9.50;99.90;;;;;;5095172;28;20447;-57
2021/12/24 00:07:53;;;;;;;4.33;3.60;;;9.50;99.90;;;;;;5094939;28;20475;-58
2021/12/24 00:10:20;;;;;;;4.37;3.97;;;9.30;99.90;;;;;;5095330;28;20520;-58
2021/12/24 00:12:56;;;;;;;4.83;4.37;;;9.30;99.90;;;;;;5095049;28;20570;-56
2021/12/24 00:15:50;;;;;;;4.00;3.70;;;9.10;99.90;;;;;;5094797;28;20428;-56
2021/12/24 00:18:27;;;;;;;6.57;4.23;;;9.20;99.90;;;;;;5095071;28;20439;-57
2021/12/24 00:37:33;;;;;;;5.20;4.03;;;8.60;99.90;;;;;;5092579;28;20435;-57
2021/12/24 00:40:10;;;;;;;4.23;3.83;;;8.40;99.90;;;;;;5094357;28;20823;-57
2021/12/24 00:42:37;;;;;;;4.77;4.30;;;8.50;99.90;;;;;;5094514;28;20420;-57
2021/12/24 00:45:05;;;;;;;3.97;3.67;;;8.50;99.90;;;;;;5094564;28;20445;-56
2021/12/24 00:47:32;;;;;;;4.10;3.70;;;8.60;99.90;;;;;;5094114;28;20526;-57
2021/12/24 00:50:06;;;;;;;5.13;3.80;;;8.40;99.90;;;;;;5093587;28;20502;-56
2021/12/24 00:52:47;;;;;;;4.40;3.93;;;8.40;99.90;;;;;;5094170;28;20965;-57
2021/12/24 00:55:13;;;;;;;7.10;4.43;;;8.30;99.90;;;;;;5094585;28;20709;-57
2021/12/24 00:57:43;;;;;;;4.20;3.80;;;8.30;99.90;;;;;;5094050;28;20439;-57
2021/12/24 01:00:13;;;;;;;4.27;3.83;;;8.30;99.90;;;;;;5094232;28;20463;-56
2021/12/24 01:02:41;;;;;;;5.23;4.33;;;8.30;99.90;;;;;;5094007;28;20440;-57
2021/12/24 01:05:10;;;;;;;5.43;4.20;;;8.20;99.90;;;;;;5094186;28;21148;-56
2021/12/24 01:07:38;;;;;;;4.57;4.10;;;8.30;99.90;;;;;;5093845;28;20489;-56
2021/12/24 01:10:07;;;;;;;6.43;5.73;;;8.30;99.90;;;;;;5094457;28;20478;-57
2021/12/24 01:12:34;;;;;;;6.20;4.73;;;8.30;99.90;;;;;;5093947;28;20483;-56
2021/12/24 01:15:01;;;;;;;4.83;3.83;;;8.20;99.90;;;;;;5094188;28;20450;-56
2021/12/24 01:17:36;;;;;;;4.20;3.77;;;8.20;99.90;;;;;;5093800;28;20452;-56
2021/12/24 01:20:11;;;;;;;5.20;4.50;;;8.20;99.90;;;;;;5094055;28;20459;-57
2021/12/24 01:25:30;;;;;;;7.13;6.43;;;8.30;99.90;;;;;;5093717;28;20553;-57
2021/12/24 01:39:08;;;;;;;3.97;3.20;;;9.10;99.90;;;;;;5093320;28;20423;-56
2021/12/24 01:44:26;;;;;;;3.93;3.37;;;9.00;99.90;;;;;;5093525;28;20775;-56
2021/12/24 01:46:55;;;;;;;3.93;3.27;;;9.10;99.90;;;;;;5093409;28;20523;-56
2021/12/24 01:49:22;;;;;;;3.30;3.00;;;9.10;99.90;;;;;;5093302;28;20952;-56
2021/12/24 01:51:50;;;;;;;7.67;3.50;;;9.20;99.90;;;;;;5093224;28;20483;-56
2021/12/24 01:54:18;;;;;;;3.87;3.47;;;9.10;99.90;;;;;;5093344;28;20534;-57
2021/12/24 01:56:46;;;;;;;4.00;3.60;;;9.20;99.90;;;;;;5093469;28;20450;-57
2021/12/24 01:59:13;;;;;;;4.07;3.30;;;9.20;99.90;;;;;;5093049;28;20564;-56
2021/12/24 02:01:41;;;;;;;7.37;3.37;;;9.20;99.90;;;;;;5093992;28;20835;-56
2021/12/24 02:04:08;;;;;;;4.40;3.40;;;9.20;99.90;;;;;;5097694;28;20442;-57
2021/12/24 02:06:35;;;;;;;3.97;3.60;;;9.40;99.90;;;;;;5097476;28;20930;-57
2021/12/24 02:09:03;;;;;;;3.53;3.03;;;9.60;99.90;;;;;;5097111;28;20482;-57
2021/12/24 02:11:37;;;;;;;5.87;3.87;;;9.70;99.90;;;;;;5097094;28;20463;-57
2021/12/24 02:14:06;;;;;;;3.67;3.17;;;9.80;99.90;;;;;;5097401;28;21145;-57
2021/12/24 02:17:02;;;;;;;4.33;3.80;;;9.80;99.90;;;;;;5097192;28;20454;-57
2021/12/24 02:30:36;;;;;;;3.47;3.00;;;9.80;99.90;;;;;;5096917;28;20438;-57
2021/12/24 02:33:04;;;;;;;3.70;3.30;;;9.80;99.90;;;;;;5096779;28;20969;-57
2021/12/24 02:35:32;;;;;;;3.73;3.43;;;9.70;99.90;;;;;;5096827;28;20550;-57
2021/12/24 02:38:02;;;;;;;3.50;2.90;;;9.40;99.90;;;;;;5097559;28;20424;-57
2021/12/24 02:40:30;;;;;;;6.40;3.80;;;9.30;99.90;;;;;;5096601;28;21116;-57
2021/12/24 02:42:58;;;;;;;3.90;3.60;;;9.20;99.90;;;;;;5096560;28;20966;-57
2021/12/24 02:45:35;;;;;;;4.17;3.70;;;9.10;99.90;;;;;;5097134;28;20530;-56
2021/12/24 02:48:24;;;;;;;3.80;3.43;;;9.10;99.90;;;;;;5096828;28;20852;-56
2021/12/24 02:53:57;;;;;;;3.70;3.27;;;8.90;99.90;;;;;;5096745;28;20466;-57
2021/12/24 02:56:27;;;;;;;4.00;3.20;;;8.90;99.90;;;;;;5096862;28;20455;-57
2021/12/24 02:58:54;;;;;;;5.20;3.33;;;8.70;99.90;;;;;;5096974;28;20458;-56
2021/12/24 03:01:25;;;;;;;4.00;3.60;;;8.90;99.90;;;;;;5096511;28;20463;-57
2021/12/24 03:03:52;;;;;;;3.53;3.23;;;9.00;99.90;;;;;;5096329;28;20431;-57
2021/12/24 03:06:21;;;;;;;5.17;3.60;;;9.20;99.90;;;;;;5096447;28;20462;-56
2021/12/24 03:08:50;;;;;;;4.77;3.93;;;9.30;99.90;;;;;;5095920;28;20478;-56
2021/12/24 03:11:17;;;;;;;5.87;3.40;;;9.50;99.90;;;;;;5096061;28;20448;-56
2021/12/24 03:13:44;;;;;;;3.50;3.20;;;9.60;99.90;;;;;;5095745;28;20479;-57
2021/12/24 03:16:12;;;;;;;5.17;3.53;;;9.60;99.90;;;;;;5096027;28;20457;-56
2021/12/24 03:18:41;;;;;;;3.43;3.00;;;9.60;99.90;;;;;;5095835;28;20442;-57
2021/12/24 03:21:13;;;;;;;3.50;3.00;;;9.70;99.90;;;;;;5095913;28;20467;-56
2021/12/24 03:23:43;;;;;;;4.53;3.33;;;9.80;99.90;;;;;;5095774;28;20477;-57
2021/12/24 03:26:14;;;;;;;4.20;3.37;;;9.70;99.90;;;;;;5096174;28;20451;-57
2021/12/24 03:28:41;;;;;;;3.53;3.23;;;9.70;99.90;;;;;;5096163;28;20499;-56
2021/12/24 03:31:09;;;;;;;4.50;3.60;;;9.70;99.90;;;;;;5095884;28;20477;-56
2021/12/24 03:33:38;;;;;;;4.83;3.87;;;9.60;99.90;;;;;;5095545;28;20482;-56
2021/12/24 03:36:07;;;;;;;3.30;2.97;;;9.70;99.90;;;;;;5095697;28;20455;-57
2021/12/24 03:38:37;;;;;;;4.57;3.00;;;9.60;99.90;;;;;;5095923;28;20800;-57
2021/12/24 03:41:05;;;;;;;3.43;3.17;;;9.50;99.90;;;;;;5095734;28;20467;-57
2021/12/24 03:43:33;;;;;;;3.60;3.30;;;9.40;99.90;;;;;;5095448;28;20444;-57
2021/12/24 03:46:04;;;;;;;4.00;3.20;;;9.20;99.90;;;;;;5095796;28;20796;-57
2021/12/24 03:48:40;;;;;;;4.13;3.50;;;8.80;99.90;;;;;;5095691;28;20783;-57
2021/12/24 03:51:24;;;;;;;4.53;3.80;;;8.80;99.90;;;;;;5095578;28;21022;-57
2021/12/24 03:56:38;;;;;;;3.20;2.90;;;8.70;99.90;;;;;;5095299;28;20768;-56
2021/12/24 03:59:08;;;;;;;3.73;3.40;;;8.60;99.90;;;;;;5095390;28;20839;-57
2021/12/24 04:01:36;;;;;;;3.57;3.00;;;8.50;99.90;;;;;;5095437;28;20468;-57
2021/12/24 04:04:04;;;;;;;3.60;3.30;;;8.50;99.90;;;;;;5095322;28;20439;-57
2021/12/24 04:06:32;;;;;;;3.73;3.33;;;8.40;99.90;;;;;;5095182;28;20459;-56
2021/12/24 04:08:59;;;;;;;3.83;3.40;;;8.50;99.90;;;;;;5094903;28;20493;-57
2021/12/24 04:11:27;;;;;;;3.90;2.83;;;8.60;99.90;;;;;;5095062;28;20474;-57
2021/12/24 04:13:54;;;;;;;3.70;3.30;;;8.70;99.90;;;;;;5094698;28;21034;-56
2021/12/24 04:16:23;;;;;;;5.17;3.47;;;8.80;99.90;;;;;;5094829;28;20443;-57
2021/12/24 04:18:58;;;;;;;3.80;3.10;;;8.80;99.90;;;;;;5094828;28;20451;-57
2021/12/24 04:26:54;;;;;;;3.53;3.23;;;9.10;99.90;;;;;;5094591;28;20537;-57
2021/12/24 04:29:21;;;;;;;3.53;3.23;;;9.30;99.90;;;;;;5094478;28;20443;-57
2021/12/24 04:31:56;;;;;;;5.53;4.30;;;9.50;99.90;;;;;;5094509;28;20547;-57
2021/12/24 04:34:26;;;;;;;3.97;3.53;;;9.70;99.90;;;;;;5094721;28;20466;-57
2021/12/24 04:37:33;;;;;;;4.13;3.40;;;9.70;99.90;;;;;;5094866;28;20892;-57
2021/12/24 04:39:56;;;;;;;4.73;3.23;;;9.80;99.90;;;;;;5094211;28;20462;-57
2021/12/24 05:01:43;;;;;;;5.90;3.30;;;10.10;99.90;;;;;;5072855;28;20451;-57
2021/12/24 05:04:13;;;;;;;4.27;3.60;;;10.20;99.90;;;;;;5093897;28;20431;-57
2021/12/24 05:06:49;;;;;;;3.80;2.80;;;10.10;99.90;;;;;;5094435;28;20455;-56
2021/12/24 05:09:22;;;;;;;3.50;3.20;;;10.10;99.90;;;;;;5093783;28;20487;-57
2021/12/24 05:11:49;;;;;;;3.70;2.77;;;10.20;99.90;;;;;;5093684;28;21005;-57
2021/12/24 05:14:19;;;;;;;4.10;2.70;;;10.10;99.90;;;;;;5093932;28;20479;-56
2021/12/24 05:16:49;;;;;;;4.17;3.27;;;10.00;99.90;;;;;;5094105;28;20448;-56
2021/12/24 05:22:03;;;;;;;3.93;3.63;;;10.00;99.90;;;;;;5093685;28;20907;-57
2021/12/24 05:24:30;;;;;;;3.50;3.20;;;10.10;99.90;;;;;;5093836;28;20439;-57
2021/12/24 05:27:00;;;;;;;3.53;3.17;;;10.00;99.90;;;;;;5093530;28;20539;-57
2021/12/24 05:29:28;;;;;;;3.93;2.97;;;10.10;99.90;;;;;;5094026;28;20435;-57
2021/12/24 05:31:55;;;;;;;3.37;3.07;;;9.90;99.90;;;;;;5093719;28;20471;-57
2021/12/24 05:34:24;;;;;;;5.13;4.10;;;9.90;99.90;;;;;;5093573;28;20484;-57
2021/12/24 05:36:52;;;;;;;3.63;3.33;;;10.00;99.90;;;;;;5093842;28;20824;-57
2021/12/24 05:39:22;;;;;;;3.83;3.53;;;10.00;99.90;;;;;;5093738;28;20443;-57
2021/12/24 05:41:50;;;;;;;4.60;3.47;;;9.70;99.90;;;;;;5093266;28;20546;-57
2021/12/24 05:44:17;;;;;;;3.77;3.37;;;9.70;99.90;;;;;;5093735;28;20440;-57
2021/12/24 05:46:45;;;;;;;3.90;3.40;;;9.60;99.90;;;;;;5093575;28;20797;-57
2021/12/24 05:49:12;;;;;;;4.80;3.47;;;9.50;99.90;;;;;;5093492;28;20447;-57
2021/12/24 05:51:41;;;;;;;3.93;3.53;;;9.30;99.90;;;;;;5093543;28;20463;-56
2021/12/24 05:54:08;;;;;;;3.87;3.47;;;9.30;99.90;;;;;;5093406;28;20480;-57
2021/12/24 05:56:35;;;;;;;3.67;3.23;;;9.30;99.90;;;;;;5093428;28;20462;-57
2021/12/24 05:59:03;;;;;;;4.87;3.97;;;9.30;99.90;;;;;;5093600;28;20812;-57
2021/12/24 06:01:30;;;;;;;3.60;3.30;;;9.20;99.90;;;;;;5093180;28;20463;-57
2021/12/24 06:03:58;;;;;;;3.30;3.00;;;9.20;99.90;;;;;;5093364;28;20483;-57
2021/12/24 06:06:25;;;;;;;3.77;3.47;;;9.20;99.90;;;;;;5093239;28;20458;-57
2021/12/24 06:08:53;;;;;;;4.23;3.37;;;9.20;99.90;;;;;;5093092;28;20483;-57
2021/12/24 06:11:21;;;;;;;3.40;3.10;;;9.10;99.90;;;;;;5093062;28;20456;-57
2021/12/24 06:13:52;;;;;;;5.43;5.03;;;9.10;99.90;;;;;;5093215;28;20482;-57
2021/12/24 06:16:20;;;;;;;4.00;3.67;;;9.10;99.90;;;;;;5093250;28;20461;-57
2021/12/24 06:18:47;;;;;;;3.60;2.93;;;9.10;99.90;;;;;;5092910;28;20451;-57
2021/12/24 06:21:15;;;;;;;3.63;3.33;;;9.10;99.90;;;;;;5092821;28;20996;-57
2021/12/24 06:23:43;;;;;;;4.73;3.83;;;8.90;99.90;;;;;;5093076;28;20791;-57
2021/12/24 06:26:12;;;;;;;5.93;3.80;;;9.40;99.90;;;;;;5093181;28;20475;-56
2021/12/24 06:28:40;;;;;;;4.10;3.80;;;9.70;99.90;;;;;;5092809;28;20780;-56
2021/12/24 06:31:07;;;;;;;5.60;3.97;;;9.90;99.90;;;;;;5092854;28;20987;-57
2021/12/24 06:33:35;;;;;;;4.57;3.70;;;10.10;99.90;;;;;;5093074;28;20479;-57
2021/12/24 06:36:02;;;;;;;4.53;3.40;;;10.30;99.90;;;;;;5092889;28;20465;-57
2021/12/24 06:38:30;;;;;;;3.87;3.40;;;10.40;99.90;;;;;;5093105;28;20455;-57
2021/12/24 06:40:57;;;;;;;4.10;3.57;;;10.50;99.90;;;;;;5092833;28;20467;-57
2021/12/24 06:43:26;;;;;;;4.33;3.30;;;10.50;99.90;;;;;;5092681;28;20447;-57
2021/12/24 06:45:54;;;;;;;3.73;3.43;;;10.50;99.90;;;;;;5092612;28;20448;-56
2021/12/24 06:48:21;;;;;;;4.27;3.83;;;10.60;99.90;;;;;;5095036;28;20447;-56
2021/12/24 06:50:50;;;;;;;3.87;3.57;;;10.60;99.90;;;;;;5096730;28;20558;-57
2021/12/24 06:53:17;;;;;;;6.13;3.93;;;10.60;99.90;;;;;;5096552;28;20483;-56
2021/12/24 06:55:45;;;;;;;5.20;3.50;;;10.60;99.90;;;;;;5096561;28;20431;-57
2021/12/24 06:58:12;;;;;;;4.10;3.77;;;10.60;99.90;;;;;;5096277;28;21039;-57
2021/12/24 07:00:40;;;;;;;7.20;3.87;;;10.60;99.90;;;;;;5096513;28;20470;-57
2021/12/24 07:03:08;;;;;;;4.60;4.20;;;10.70;99.90;;;;;;5096874;28;20447;-57
2021/12/24 07:05:35;;;;;;;5.40;4.90;;;10.60;99.90;;;;;;5096543;28;20850;-57
2021/12/24 07:08:02;;;;;;;4.20;3.67;;;10.60;99.90;;;;;;5096034;28;20471;-57
2021/12/24 07:10:29;;;;;;;3.90;3.60;;;10.60;99.90;;;;;;5096397;28;20463;-57
2021/12/24 07:12:57;;;;;;;6.93;4.10;;;10.60;99.90;;;;;;5095951;28;20937;-57
2021/12/24 07:15:24;;;;;;;3.80;3.43;;;10.60;99.90;;;;;;5096083;28;20435;-57
2021/12/24 07:17:52;;;;;;;5.63;3.97;;;10.60;99.90;;;;;;5096309;28;20530;-57
2021/12/24 07:20:20;;;;;;;4.57;4.17;;;10.50;99.90;;;;;;5096191;28;20463;-57
2021/12/24 07:22:47;;;;;;;5.93;3.80;;;10.50;99.90;;;;;;5095770;28;20448;-57
2021/12/24 07:25:14;;;;;;;4.87;3.90;;;10.30;99.90;;;;;;5095836;28;20535;-57
2021/12/24 07:27:41;;;;;;;4.07;3.67;;;10.40;99.90;;;;;;5095925;28;20526;-57
2021/12/24 07:30:11;;;;;;;3.47;3.27;;;10.40;99.90;;;;;;5096064;28;20571;-57
2021/12/24 07:32:38;;;;;;;4.47;3.97;;;10.30;99.90;;;;;;5095846;28;20448;-57
2021/12/24 07:35:08;;;;;;;4.20;3.80;;;10.20;99.90;;;;;;5095917;28;20479;-57
2021/12/24 07:37:36;;;;;;;8.30;4.40;;;10.20;99.90;;;;;;5095494;28;20985;-57
2021/12/24 07:40:04;;;;;;;4.80;4.23;;;10.10;99.90;;;;;;5095480;28;20555;-57
2021/12/24 07:42:31;;;;;;;4.30;3.90;;;10.10;99.90;;;;;;5095579;28;20938;-56
2021/12/24 07:44:59;;;;;;;9.47;4.73;;;10.20;99.90;;;;;;5095521;28;20450;-57
2021/12/24 07:47:33;;;;;;;4.40;4.10;;;10.40;99.90;;;;;;5095330;28;20471;-57
2021/12/24 07:50:04;;;;;;;3.97;3.67;;;10.40;99.90;;;;;;5095089;28;20491;-57
2021/12/24 07:52:31;;;;;;;4.60;4.20;;;10.30;99.90;;;;;;5095125;28;20428;-57
2021/12/24 07:54:59;;;;;;;5.63;3.90;;;10.20;99.90;;;;;;5094925;28;20475;-57
2021/12/24 07:57:26;;;;;;;5.00;4.60;;;10.20;99.90;;;;;;5095327;28;20550;-57
2021/12/24 07:59:53;;;;;;;6.03;4.33;;;10.10;99.90;;;;;;5094079;28;20472;-57
2021/12/24 08:02:26;;;;;;;5.93;3.83;;;10.20;99.90;;;;;;5095121;28;20944;-56
2021/12/24 08:04:53;;;;;;;7.13;4.17;;;10.20;99.90;;;;;;5095117;28;20424;-57
2021/12/24 08:07:21;;;;;;;5.57;4.00;;;10.20;99.90;;;;;;5095408;28;20487;-56
2021/12/24 08:09:50;;;;;;;4.07;3.43;;;10.30;99.90;;;;;;5094823;28;20953;-57
2021/12/24 08:12:20;;;;;;;4.23;3.83;;;10.30;99.90;;;;;;5094871;28;20809;-56
2021/12/24 08:14:47;;;;;;;4.43;3.60;;;10.30;99.90;;;;;;5094977;28;20479;-57
2021/12/24 08:17:16;;;;;;;6.80;4.50;;;10.40;99.90;;;;;;5095084;28;20939;-56
2021/12/24 08:19:43;;;;;;;5.40;3.80;;;10.40;99.90;;;;;;5094582;28;20444;-57
2021/12/24 08:22:11;;;;;;;6.07;4.03;;;10.50;99.90;;;;;;5094941;28;20443;-56
2021/12/24 08:24:39;;;;;;;4.73;4.17;;;10.50;99.90;;;;;;5095046;28;20444;-56
2021/12/24 08:27:08;;;;;;;3.60;3.30;;;10.50;99.90;;;;;;5094265;28;20545;-56
2021/12/24 08:29:36;;;;;;;3.80;3.47;;;10.50;99.90;;;;;;5094766;28;20444;-57
2021/12/24 08:32:04;;;;;;;5.17;3.60;;;10.50;99.90;;;;;;5094978;28;20534;-57
2021/12/24 08:34:32;;;;;;;5.30;3.70;;;10.50;99.90;;;;;;5094342;28;20474;-57
2021/12/24 08:37:00;;;;;;;3.43;3.13;;;10.60;99.90;;;;;;5095000;28;20466;-56
2021/12/24 08:39:27;;;;;;;3.33;3.13;;;10.50;99.90;;;;;;5094784;28;20451;-56
2021/12/24 08:41:55;;;;;;;4.53;3.20;;;10.60;99.90;;;;;;5094317;28;20988;-57
2021/12/24 08:44:26;;;;;;;5.03;3.77;;;10.50;99.90;;;;;;5094453;28;20516;-57
2021/12/24 08:46:53;;;;;;;3.90;3.50;;;10.40;99.90;;;;;;5094148;28;20428;-56
2021/12/24 08:49:21;;;;;;;4.37;3.87;;;10.40;99.90;;;;;;5094670;28;20477;-57
2021/12/24 08:51:49;;;;;;;3.57;3.27;;;10.30;99.90;;;;;;5094277;28;20482;-57
2021/12/24 08:54:16;;;;;;;4.13;3.60;;;10.30;99.90;;;;;;5094257;28;20483;-57
2021/12/24 08:56:43;;;;;;;4.23;3.20;;;10.40;99.90;;;;;;5094752;28;20454;-57
2021/12/24 08:59:11;;;;;;;4.23;3.77;;;10.30;99.90;;;;;;5093888;28;20793;-57
2021/12/24 09:01:42;;;;;;;4.50;3.57;;;10.30;99.90;;;;;;5093769;28;20466;-57
2021/12/24 09:04:09;;;;;;;3.70;3.40;;;10.30;99.90;;;;;;5093957;28;20424;-57
2021/12/24 09:06:37;;;;;;;5.30;3.40;;;10.30;99.90;;;;;;5093555;28;20554;-57
2021/12/24 09:09:06;;;;;;;4.73;3.57;;;10.30;99.90;;;;;;5092445;28;20487;-57
2021/12/24 09:11:34;;;;;;;4.03;3.63;;;10.30;99.90;;;;;;5093701;28;20463;-57
2021/12/24 09:14:01;;;;;;;8.57;4.30;;;10.30;99.90;;;;;;5093950;28;20570;-57
2021/12/24 09:16:28;;;;;;;4.13;3.50;;;10.20;99.90;;;;;;5093870;28;20817;-57
2021/12/24 09:19:01;;;;;;;4.30;3.90;;;10.30;99.90;;;;;;5093627;28;20443;-56
2021/12/24 09:21:29;;;;;;;3.80;3.50;;;10.30;99.90;;;;;;5093609;28;20509;-57
2021/12/24 09:23:57;;;;;;;7.03;3.80;;;10.20;99.90;;;;;;5093282;28;20942;-57
2021/12/24 09:26:28;;;;;;;3.90;3.60;;;10.20;99.90;;;;;;5093729;28;20447;-57
2021/12/24 09:28:56;;;;;;;4.27;3.87;;;10.20;99.90;;;;;;5093925;28;20443;-57
2021/12/24 09:31:23;;;;;;;4.17;3.40;;;10.30;99.90;;;;;;5093596;28;20463;-57
2021/12/24 09:33:51;;;;;;;5.30;4.47;;;10.20;99.90;;;;;;5093526;28;20534;-56
2021/12/24 09:36:24;;;;;;;3.90;3.60;;;10.10;99.90;;;;;;5093862;28;20542;-56
2021/12/24 09:38:52;;;;;;;4.83;3.80;;;10.20;99.90;;;;;;5093489;28;20424;-57
2021/12/24 09:41:20;;;;;;;4.10;3.70;;;10.10;99.90;;;;;;5093245;28;21020;-56
2021/12/24 09:43:47;;;;;;;4.00;3.20;;;10.00;99.90;;;;;;5093488;28;20470;-56
2021/12/24 09:46:14;;;;;;;3.63;3.33;;;10.10;99.90;;;;;;5093554;28;20443;-57
2021/12/24 09:48:42;;;;;;;3.50;3.20;;;10.00;99.90;;;;;;5093046;28;20443;-57
2021/12/24 09:51:10;;;;;;;3.57;2.90;;;10.20;99.90;;;;;;5093059;28;20464;-57
2021/12/24 09:53:38;;;;;;;5.70;3.40;;;10.10;99.90;;;;;;5092968;28;21007;-57
2021/12/24 09:56:07;;;;;;;4.67;3.87;;;10.10;99.90;;;;;;5093052;28;20898;-57
2021/12/24 09:58:34;;;;;;;4.83;3.50;;;10.00;99.90;;;;;;5093099;28;20443;-57
2021/12/24 10:01:01;;;;;;;4.20;3.80;;;10.00;99.90;;;;;;5092993;28;20984;-57
2021/12/24 10:03:30;;;;;;;8.73;3.97;;;9.90;99.90;;;;;;5093093;28;20443;-56
2021/12/24 10:05:57;;;;;;;4.03;3.63;;;9.90;99.90;;;;;;5093086;28;20542;-57
2021/12/24 10:08:26;;;;;;;5.23;3.87;;;9.80;99.90;;;;;;5093025;28;20518;-57
2021/12/24 10:11:02;;;;;;;3.93;3.23;;;9.90;99.90;;;;;;5093201;28;20546;-57
2021/12/24 10:13:35;;;;;;;5.30;4.00;;;9.90;99.90;;;;;;5093133;28;20502;-57
2021/12/24 10:16:05;;;;;;;4.37;3.63;;;10.10;99.90;;;;;;5092762;28;20471;-57
2021/12/24 10:18:35;;;;;;;4.47;4.07;;;10.10;99.90;;;;;;5093029;28;20934;-57
2021/12/24 10:21:06;;;;;;;4.03;3.63;;;9.90;99.90;;;;;;5093265;28;20490;-57
2021/12/24 10:23:46;;;;;;;5.00;4.03;;;10.00;99.90;;;;;;5095520;28;20439;-57
2021/12/24 10:26:24;;;;;;;7.47;4.03;;;9.90;99.90;;;;;;5097249;28;20503;-57
2021/12/24 10:28:59;;;;;;;4.77;3.40;;;10.00;99.90;;;;;;5097136;28;20432;-57
2021/12/24 10:31:28;;;;;;;4.10;3.70;;;10.10;99.90;;;;;;5097049;28;20462;-57
2021/12/24 10:34:18;;;;;;;4.93;4.10;;;10.10;99.90;;;;;;5097454;28;20500;-57
2021/12/24 10:37:18;;;;;;;4.13;3.43;;;10.10;99.90;;;;;;5097276;28;20489;-57
2021/12/24 10:39:48;;;;;;;4.03;3.63;;;9.90;99.90;;;;;;5097000;28;20515;-57
2021/12/24 10:42:20;;;;;;;4.00;3.60;;;9.90;99.90;;;;;;5096654;28;20424;-57
2021/12/24 10:44:49;;;;;;;4.53;3.70;;;9.90;99.90;;;;;;5096734;28;20420;-57
2021/12/24 10:47:20;;;;;;;4.33;3.77;;;9.90;99.90;;;;;;5096821;28;20529;-57
2021/12/24 10:55:19;;;;;;;7.73;3.80;;;9.90;99.90;;;;;;5087325;28;20478;-57
2021/12/24 10:57:51;;;;;;;4.97;4.37;;;10.00;99.90;;;;;;5096807;28;20440;-57
2021/12/24 11:00:23;;;;;;;4.20;3.80;;;10.10;99.90;;;;;;5096577;28;20546;-57
2021/12/24 11:02:54;;;;;;;9.13;4.50;;;10.00;99.90;;;;;;5096316;28;20576;-57
2021/12/24 11:05:40;;;;;;;3.43;3.13;;;10.10;99.90;;;;;;5096385;28;20507;-57
2021/12/24 11:08:09;;;;;;;3.37;3.07;;;10.00;99.90;;;;;;5095813;28;20516;-57
2021/12/24 11:10:38;;;;;;;3.47;3.10;;;10.00;99.90;;;;;;5096151;28;20549;-57
2021/12/24 11:13:11;;;;;;;4.00;3.40;;;10.00;99.90;;;;;;5096181;28;20540;-57
2021/12/24 11:15:41;;;;;;;4.77;3.23;;;10.00;99.90;;;;;;5095826;28;20471;-57
2021/12/24 11:18:14;;;;;;;4.10;3.70;;;10.00;99.90;;;;;;5096451;28;20477;-57
2021/12/24 11:20:41;;;;;;;3.07;2.70;;;10.00;99.90;;;;;;5095871;28;20981;-58
2021/12/24 11:23:11;;;;;;;3.60;3.30;;;10.00;99.90;;;;;;5095795;28;20486;-57
2021/12/24 11:25:40;;;;;;;3.00;2.70;;;10.10;99.90;;;;;;5096045;28;20496;-57
2021/12/24 11:28:10;;;;;;;6.13;3.37;;;10.20;99.90;;;;;;5096010;28;20458;-57
2021/12/24 11:30:40;;;;;;;3.60;3.10;;;10.30;99.90;;;;;;5096262;28;20833;-57
2021/12/24 11:33:08;;;;;;;3.10;2.90;;;10.20;99.90;;;;;;5095327;28;20522;-57
2021/12/24 11:35:35;;;;;;;2.70;2.40;;;10.20;99.90;;;;;;5095782;28;20486;-57
2021/12/24 11:38:03;;;;;;;4.73;2.93;;;10.20;99.90;;;;;;5095992;28;20444;-57
2021/12/24 11:40:30;;;;;;;3.90;3.07;;;10.30;99.90;;;;;;5095701;28;20528;-57
2021/12/24 11:43:02;;;;;;;5.43;2.83;;;10.10;99.90;;;;;;5095437;28;20819;-57
2021/12/24 11:45:32;;;;;;;3.23;2.37;;;10.20;99.90;;;;;;5095578;28;20441;-57
2021/12/24 11:48:01;;;;;;;3.83;2.77;;;10.10;99.90;;;;;;5095653;28;20447;-57
2021/12/24 11:50:29;;;;;;;6.73;2.67;;;10.10;99.90;;;;;;5095149;28;20471;-57
2021/12/24 11:52:59;;;;;;;3.20;2.80;;;10.10;99.90;;;;;;5095620;28;20450;-57
2021/12/24 11:55:28;;;;;;;2.80;2.60;;;10.20;99.90;;;;;;5095647;28;20507;-57
2021/12/24 11:57:59;;;;;;;5.00;3.10;;;10.30;99.90;;;;;;5095180;28;20455;-58
2021/12/24 12:00:31;;;;;;;3.30;2.40;;;10.30;99.90;;;;;;5095109;28;20464;-58
2021/12/24 12:02:58;;;;;;;2.80;2.57;;;10.40;99.90;;;;;;5095534;28;20428;-57
2021/12/24 12:05:32;;;;;;;3.13;2.30;;;10.40;99.90;;;;;;5094889;28;20538;-57
2021/12/24 12:08:38;;;;;;;4.20;2.27;;;10.30;99.90;;;;;;5095008;28;21051;-57
2021/12/24 12:11:08;;;;;;;3.23;2.73;;;10.40;99.90;;;;;;5095247;28;20861;-57
2021/12/24 12:13:40;;;;;;;3.37;2.90;;;10.50;99.90;;;;;;5094900;28;20913;-57
2021/12/24 12:16:10;;;;;;;3.07;2.47;;;10.30;99.90;;;;;;5094980;28;20490;-57
2021/12/24 12:18:47;;;;;;;2.50;2.30;;;10.40;99.90;;;;;;5094538;28;20906;-57
2021/12/24 12:21:20;;;;;;;3.20;3.00;;;10.40;99.90;;;;;;5094576;28;20467;-57
2021/12/24 12:26:37;;;;;;;2.20;2.00;;;10.50;99.90;;;;;;5071995;28;20568;-56
2021/12/24 12:29:25;;;;;;;2.43;2.23;;;10.40;99.90;;;;;;5094753;28;20467;-55
2021/12/24 12:31:57;;;;;;;2.10;2.00;;;10.50;99.90;;;;;;5094586;28;20550;-56
2021/12/24 12:34:53;;;;;;;2.40;2.17;;;10.70;99.90;;;;;;5094262;28;20510;-56
2021/12/24 12:37:22;;;;;;;1.80;1.70;;;10.60;99.90;;;;;;5059032;28;20462;-56
2021/12/24 12:39:52;;;;;;;2.33;1.77;;;10.60;99.90;;;;;;5094561;28;20446;-56
2021/12/24 12:42:20;;;;;;;3.00;2.37;;;10.60;99.90;;;;;;5094546;28;20416;-56
2021/12/24 12:44:50;;;;;;;2.30;2.10;;;10.60;99.90;;;;;;5094137;28;20478;-56
2021/12/24 12:47:21;;;;;;;2.03;1.80;;;10.70;99.90;;;;;;5094190;28;20447;-56
2021/12/24 12:49:49;;;;;;;5.10;2.00;;;10.70;99.90;;;;;;5093979;28;20423;-56
2021/12/24 12:52:31;;;;;;;1.80;1.70;;;10.70;99.90;;;;;;5094397;28;20810;-56
2021/12/24 12:54:58;;;;;;;3.20;1.73;;;10.60;99.90;;;;;;5094270;28;20477;-56
2021/12/24 12:57:29;;;;;;;2.67;1.80;;;10.70;99.90;;;;;;5094064;28;20929;-56
2021/12/24 13:00:18;;;;;;;2.23;2.00;;;10.60;99.90;;;;;;5093957;28;20563;-56
2021/12/24 13:03:14;;;;;;;2.03;1.87;;;10.70;99.90;;;;;;5093926;28;20435;-57
2021/12/24 13:06:02;;;;;;;1.70;1.60;;;10.70;99.90;;;;;;5080678;28;20463;-56
2021/12/24 13:08:32;;;;;;;1.80;1.70;;;10.70;99.90;;;;;;5093919;28;20475;-56
2021/12/24 13:11:03;;;;;;;2.70;2.00;;;10.70;99.90;;;;;;5093930;28;20471;-57
2021/12/24 13:13:30;;;;;;;1.60;1.50;;;10.80;99.90;;;;;;5094062;28;20451;-57
2021/12/24 13:15:58;;;;;;;2.13;1.90;;;10.80;99.90;;;;;;5093448;28;20480;-57
2021/12/24 13:18:31;;;;;;;1.83;1.70;;;10.70;99.90;;;;;;5093492;28;20543;-57
2021/12/24 13:23:47;;;;;;;2.33;1.87;;;10.70;99.90;;;;;;5093566;28;20427;-57
2021/12/24 13:26:18;;;;;;;2.30;2.10;;;10.70;99.90;;;;;;5093604;28;20489;-57
2021/12/24 13:28:57;;;;;;;2.53;1.80;;;10.70;99.90;;;;;;5093892;28;20459;-57
2021/12/24 13:31:26;;;;;;;1.77;1.63;;;10.70;99.90;;;;;;5093285;28;20474;-56
2021/12/24 13:33:55;;;;;;;1.83;1.70;;;10.80;99.90;;;;;;5093281;28;20443;-57
2021/12/24 13:36:23;;;;;;;1.90;1.80;;;10.70;99.90;;;;;;5093744;28;20490;-56
2021/12/24 13:38:50;;;;;;;1.97;1.60;;;10.80;99.90;;;;;;5093594;28;20447;-56
2021/12/24 13:41:18;;;;;;;2.60;2.40;;;10.70;99.90;;;;;;5093069;28;20463;-57
2021/12/24 13:43:45;;;;;;;5.53;1.67;;;10.70;99.90;;;;;;5093312;28;20454;-57
2021/12/24 13:46:14;;;;;;;2.23;2.03;;;10.70;99.90;;;;;;5093428;28;20466;-57
2021/12/24 13:49:09;;;;;;;1.50;1.40;;;10.80;99.90;;;;;;5093110;28;20458;-57
2021/12/24 13:54:34;;;;;;;1.70;1.60;;;10.70;99.90;;;;;;5093141;28;20411;-56
2021/12/24 13:57:03;;;;;;;3.10;1.80;;;10.70;99.90;;;;;;5093051;28;20467;-56
2021/12/24 13:59:31;;;;;;;1.80;1.70;;;10.80;99.90;;;;;;5093267;28;20450;-56
2021/12/24 14:02:00;;;;;;;2.37;1.73;;;10.80;99.90;;;;;;5093083;28;20455;-57
2021/12/24 14:04:27;;;;;;;1.90;1.60;;;10.80;99.90;;;;;;5092676;28;20910;-57
2021/12/24 14:06:58;;;;;;;2.10;1.70;;;10.90;99.90;;;;;;5093682;28;20458;-57
2021/12/24 14:09:30;;;;;;;2.10;1.90;;;10.80;99.90;;;;;;5092889;28;20957;-56
2021/12/24 14:11:57;;;;;;;1.80;1.70;;;10.70;99.90;;;;;;5092976;28;20517;-56
2021/12/24 14:14:28;;;;;;;2.03;1.90;;;10.70;99.90;;;;;;5092788;28;20475;-56
2021/12/24 14:17:20;;;;;;;2.33;1.93;;;10.80;99.90;;;;;;5093090;28;20830;-57
2021/12/24 14:20:01;;;;;;;1.80;1.70;;;10.80;99.90;;;;;;5093066;28;20451;-56
2021/12/24 14:22:34;;;;;;;2.20;1.77;;;10.90;99.90;;;;;;5093252;28;20462;-57
2021/12/24 14:25:02;;;;;;;1.90;1.70;;;10.80;99.90;;;;;;5092574;28;20432;-56
2021/12/24 14:27:31;;;;;;;2.20;2.00;;;10.70;99.90;;;;;;5092697;28;20950;-57
2021/12/24 14:30:01;;;;;;;1.73;1.53;;;10.80;99.90;;;;;;5092568;28;20474;-56
2021/12/24 14:32:33;;;;;;;2.40;2.20;;;10.90;99.90;;;;;;5092659;28;20447;-56
2021/12/24 14:35:14;;;;;;;4.30;2.57;;;10.80;99.90;;;;;;5092898;28;20830;-56
2021/12/24 14:37:45;;;;;;;2.20;1.90;;;10.80;99.90;;;;;;5093155;28;20448;-57